Time;durP1;ratioP1;P1;durP2;ratioP2;P2;SDS_P1;SDS_P2;PMS_P1;PMS_P2;Temp;Humidity;BMP_temperature;BMP_pressure;BME280_temperature;BME280_humidity;BME280_pressure;Samples;Min_cycle;Max_cycle;Signal;HPM_P1;HPM_P2
2023/09/18 00:00:38;;;;;;;8.52;3.53;;;17.70;99.90;;;;;;4190146;28;20079;-57
2023/09/18 00:02:58;;;;;;;3.15;2.95;;;17.60;99.90;;;;;;4189495;28;20043;-57
2023/09/18 00:05:18;;;;;;;3.75;3.55;;;17.60;99.90;;;;;;4189107;28;20044;-57
2023/09/18 00:07:38;;;;;;;4.50;4.10;;;17.50;99.90;;;;;;4189984;28;20051;-57
2023/09/18 00:09:58;;;;;;;4.15;3.65;;;17.50;99.90;;;;;;4191631;28;20267;-57
2023/09/18 00:12:18;;;;;;;4.07;3.90;;;17.40;99.90;;;;;;4192237;28;20039;-57
2023/09/18 00:14:39;;;;;;;5.20;4.93;;;17.30;99.90;;;;;;4187540;28;20091;-57
2023/09/18 00:17:00;;;;;;;5.32;4.95;;;17.20;99.90;;;;;;4191925;28;20034;-57
2023/09/18 00:19:20;;;;;;;5.47;3.83;;;17.30;99.90;;;;;;4191809;28;20047;-57
2023/09/18 00:21:40;;;;;;;4.32;4.13;;;17.40;99.90;;;;;;4190890;28;20267;-57
2023/09/18 00:24:00;;;;;;;6.97;4.38;;;17.40;99.90;;;;;;4191772;28;20091;-57
2023/09/18 00:26:20;;;;;;;2.80;2.70;;;17.50;99.90;;;;;;4189647;28;20047;-57
2023/09/18 00:28:40;;;;;;;3.83;3.72;;;17.60;99.90;;;;;;4190471;28;20101;-57
2023/09/18 00:31:00;;;;;;;4.80;3.95;;;17.60;99.90;;;;;;4189809;28;20051;-57
2023/09/18 00:33:21;;;;;;;5.40;4.30;;;17.60;99.90;;;;;;4186658;28;20048;-57
2023/09/18 00:35:45;;;;;;;3.95;3.70;;;17.60;99.90;;;;;;4191190;28;20324;-57
2023/09/18 00:38:07;;;;;;;4.15;4.05;;;17.40;99.90;;;;;;4189984;28;20063;-57
2023/09/18 00:40:27;;;;;;;5.28;4.85;;;17.20;99.90;;;;;;4194083;28;20116;-57
2023/09/18 00:42:47;;;;;;;4.72;4.28;;;17.00;99.90;;;;;;4191215;28;20109;-57
2023/09/18 00:45:09;;;;;;;6.85;4.45;;;16.80;99.90;;;;;;4189140;28;20052;-57
2023/09/18 00:47:29;;;;;;;5.57;4.68;;;16.70;99.90;;;;;;4188164;28;20364;-57
2023/09/18 00:49:51;;;;;;;5.97;5.43;;;16.70;99.90;;;;;;4187164;28;20051;-57
2023/09/18 00:52:11;;;;;;;4.55;4.25;;;16.90;99.90;;;;;;4189080;28;20044;-57
2023/09/18 00:54:34;;;;;;;9.05;5.50;;;17.10;99.90;;;;;;4190774;28;20047;-57
2023/09/18 00:56:54;;;;;;;4.50;4.13;;;17.10;99.90;;;;;;4189372;28;20048;-57
2023/09/18 00:59:15;;;;;;;4.63;4.40;;;17.20;99.90;;;;;;4188258;28;20052;-57
2023/09/18 01:01:35;;;;;;;4.18;3.90;;;17.20;99.90;;;;;;4215288;22;20092;-59
2023/09/18 01:03:55;;;;;;;4.65;4.28;;;17.30;99.90;;;;;;4185909;28;20083;-58
2023/09/18 01:06:15;;;;;;;5.32;3.85;;;17.20;99.90;;;;;;4188104;28;20075;-58
2023/09/18 01:08:36;;;;;;;3.55;3.35;;;17.10;99.90;;;;;;4187873;28;20083;-58
2023/09/18 01:11:05;;;;;;;4.90;4.25;;;17.00;99.90;;;;;;4188536;28;20059;-58
2023/09/18 01:13:34;;;;;;;4.68;4.25;;;16.90;99.90;;;;;;4188428;28;20382;-58
2023/09/18 01:16:34;;;;;;;4.60;4.28;;;16.90;99.90;;;;;;4188511;28;20039;-58
2023/09/18 01:18:54;;;;;;;3.92;3.70;;;16.90;99.90;;;;;;4173440;28;20091;-58
2023/09/18 01:21:15;;;;;;;4.47;4.03;;;16.80;99.90;;;;;;4188118;28;20498;-58
2023/09/18 01:23:35;;;;;;;5.72;4.78;;;16.70;99.90;;;;;;4188493;28;20067;-59
2023/09/18 01:25:55;;;;;;;4.93;4.57;;;16.70;99.90;;;;;;4187851;28;20048;-58
2023/09/18 01:28:16;;;;;;;5.50;4.25;;;16.70;99.90;;;;;;4190558;28;20044;-59
2023/09/18 01:30:38;;;;;;;6.88;4.65;;;16.60;99.90;;;;;;4176275;28;20072;-58
2023/09/18 01:32:58;;;;;;;5.45;5.00;;;16.60;99.90;;;;;;4190304;28;20040;-58
2023/09/18 01:35:19;;;;;;;4.35;4.10;;;16.60;99.90;;;;;;4191195;28;20051;-58
2023/09/18 01:37:40;;;;;;;5.68;4.80;;;16.60;99.90;;;;;;4190375;28;20095;-58
2023/09/18 01:40:01;;;;;;;5.15;4.82;;;16.50;99.90;;;;;;4191118;28;20052;-58
2023/09/18 01:42:22;;;;;;;4.80;4.70;;;16.50;99.90;;;;;;4173726;28;20040;-59
2023/09/18 01:44:43;;;;;;;4.85;4.45;;;16.40;99.90;;;;;;4174380;28;20247;-58
2023/09/18 01:47:05;;;;;;;5.55;5.10;;;16.50;99.90;;;;;;4173575;28;20088;-58
2023/09/18 01:49:34;;;;;;;5.68;5.38;;;16.50;99.90;;;;;;4174297;28;20382;-58
2023/09/18 01:51:54;;;;;;;9.77;4.93;;;16.60;99.90;;;;;;4174245;28;20044;-58
2023/09/18 01:54:14;;;;;;;5.25;4.75;;;16.60;99.90;;;;;;4173855;28;20406;-58
2023/09/18 01:56:34;;;;;;;5.18;4.82;;;16.50;99.90;;;;;;4173415;28;20053;-58
2023/09/18 01:58:55;;;;;;;4.80;4.60;;;16.60;99.90;;;;;;4171523;28;20343;-58
2023/09/18 02:01:15;;;;;;;5.82;5.63;;;16.40;99.90;;;;;;4174235;28;20070;-58
2023/09/18 02:03:36;;;;;;;5.15;5.05;;;16.30;99.90;;;;;;4174340;28;20105;-58
2023/09/18 02:06:16;;;;;;;5.55;5.22;;;16.30;99.90;;;;;;4172971;28;20052;-58
2023/09/18 02:08:36;;;;;;;6.20;5.93;;;16.30;99.90;;;;;;4174131;28;20042;-58
2023/09/18 02:10:57;;;;;;;4.85;4.68;;;16.30;99.90;;;;;;4173964;28;20060;-58
2023/09/18 02:13:17;;;;;;;5.15;4.82;;;16.40;99.90;;;;;;4174144;28;20106;-58
2023/09/18 02:15:38;;;;;;;5.47;5.18;;;16.40;99.90;;;;;;4174014;28;20080;-58
2023/09/18 02:17:58;;;;;;;5.60;4.78;;;16.60;99.90;;;;;;4174034;28;20236;-58
2023/09/18 02:20:18;;;;;;;7.78;4.72;;;16.70;99.90;;;;;;4172555;28;20099;-58
2023/09/18 02:22:42;;;;;;;5.38;5.07;;;16.60;99.90;;;;;;4174196;28;20067;-58
2023/09/18 02:25:02;;;;;;;5.15;4.88;;;16.70;99.90;;;;;;4174097;28;20080;-59
2023/09/18 02:27:22;;;;;;;7.35;5.85;;;16.60;99.90;;;;;;4173126;28;20068;-58
2023/09/18 02:29:42;;;;;;;5.22;4.90;;;16.60;99.90;;;;;;4173982;28;20295;-58
2023/09/18 02:32:03;;;;;;;3.42;3.22;;;16.60;99.90;;;;;;4173140;28;20044;-58
2023/09/18 02:34:23;;;;;;;4.18;3.97;;;16.70;99.90;;;;;;4173776;28;20041;-58
2023/09/18 02:36:43;;;;;;;5.00;4.70;;;16.70;99.90;;;;;;4172962;28;20036;-58
2023/09/18 02:39:03;;;;;;;6.78;6.13;;;16.60;99.90;;;;;;4173953;28;20112;-58
2023/09/18 02:41:23;;;;;;;4.18;4.07;;;16.40;99.90;;;;;;4173792;28;20083;-58
2023/09/18 02:43:44;;;;;;;5.35;5.05;;;16.40;99.90;;;;;;4173285;28;20296;-59
2023/09/18 02:46:05;;;;;;;5.00;4.80;;;16.30;99.90;;;;;;4172631;28;20421;-58
2023/09/18 02:48:25;;;;;;;5.00;4.80;;;16.40;99.90;;;;;;4173787;28;20069;-58
2023/09/18 02:50:45;;;;;;;5.03;4.60;;;16.50;99.90;;;;;;4172805;28;20045;-58
2023/09/18 02:53:08;;;;;;;5.68;5.18;;;16.50;99.90;;;;;;4172789;28;20255;-58
2023/09/18 02:55:28;;;;;;;;;;;16.50;99.90;;;;;;4174026;28;20040;-58
2023/09/18 02:57:48;;;;;;;4.47;4.18;;;16.60;99.90;;;;;;4173688;28;19939;-59
2023/09/18 03:00:09;;;;;;;4.75;4.55;;;16.50;99.90;;;;;;4172777;28;20052;-58
2023/09/18 03:02:29;;;;;;;4.75;4.05;;;16.50;99.90;;;;;;4173285;28;20164;-59
2023/09/18 03:04:50;;;;;;;4.75;4.22;;;16.40;99.90;;;;;;4173570;28;20101;-58
2023/09/18 03:07:13;;;;;;;5.38;4.97;;;16.40;99.90;;;;;;4173595;28;20048;-59
2023/09/18 03:09:33;;;;;;;;;;;16.30;99.90;;;;;;4173132;28;20068;-58
2023/09/18 03:11:53;;;;;;;4.90;4.60;;;16.30;99.90;;;;;;4172497;28;19923;-58
2023/09/18 03:14:13;;;;;;;6.20;5.80;;;16.20;99.90;;;;;;4173177;28;20071;-59
2023/09/18 03:16:33;;;;;;;5.28;4.88;;;16.20;99.90;;;;;;4173465;28;20109;-59
2023/09/18 03:18:54;;;;;;;4.80;4.65;;;16.20;99.90;;;;;;4173296;28;20382;-58
2023/09/18 03:21:14;;;;;;;7.30;4.97;;;16.10;99.90;;;;;;4173349;28;20386;-59
2023/09/18 03:23:35;;;;;;;6.30;5.82;;;16.10;99.90;;;;;;4173427;28;20044;-58
2023/09/18 03:25:55;;;;;;;4.90;4.70;;;16.00;99.90;;;;;;4172667;28;20052;-59
2023/09/18 03:28:15;;;;;;;5.25;5.05;;;16.00;99.90;;;;;;4172797;28;20053;-58
2023/09/18 03:30:36;;;;;;;6.57;6.13;;;16.00;99.90;;;;;;4173307;28;20076;-58
2023/09/18 03:32:56;;;;;;;5.43;5.22;;;16.10;99.90;;;;;;4173174;28;20087;-58
2023/09/18 03:35:18;;;;;;;5.97;5.75;;;16.10;99.90;;;;;;4170530;28;20080;-58
2023/09/18 03:37:38;;;;;;;5.22;5.03;;;16.00;99.90;;;;;;4173208;28;20041;-58
2023/09/18 03:39:59;;;;;;;7.75;5.85;;;15.80;99.90;;;;;;4172454;28;20060;-59
2023/09/18 03:42:19;;;;;;;5.82;5.45;;;15.70;99.90;;;;;;4172366;28;20075;-58
2023/09/18 03:44:39;;;;;;;5.82;5.43;;;15.80;99.90;;;;;;4171595;28;20079;-58
2023/09/18 03:47:00;;;;;;;6.35;5.95;;;15.80;99.90;;;;;;4172233;28;20045;-59
2023/09/18 03:49:20;;;;;;;6.80;6.18;;;15.80;99.90;;;;;;4172731;28;20419;-58
2023/09/18 03:51:40;;;;;;;7.70;6.93;;;15.90;99.90;;;;;;4172621;28;20072;-58
2023/09/18 03:54:00;;;;;;;6.28;6.03;;;16.10;99.90;;;;;;4172895;28;20052;-58
2023/09/18 03:56:21;;;;;;;5.40;5.20;;;16.10;99.90;;;;;;4171676;28;20111;-59
2023/09/18 03:58:41;;;;;;;7.03;6.40;;;16.10;99.90;;;;;;4172913;28;20083;-58
2023/09/18 04:01:02;;;;;;;6.25;5.85;;;16.10;99.90;;;;;;4170492;28;20080;-59
2023/09/18 04:03:22;;;;;;;6.68;6.10;;;16.10;99.90;;;;;;4172434;28;20107;-59
2023/09/18 04:05:42;;;;;;;5.38;5.18;;;16.10;99.90;;;;;;4172425;28;20109;-59
2023/09/18 04:08:02;;;;;;;4.85;4.57;;;16.00;99.90;;;;;;4172878;28;20040;-58
2023/09/18 04:10:22;;;;;;;5.50;5.20;;;15.90;99.90;;;;;;4172019;28;20416;-59
2023/09/18 04:12:43;;;;;;;5.40;5.00;;;15.90;99.90;;;;;;4172228;28;20378;-59
2023/09/18 04:15:04;;;;;;;6.93;6.22;;;15.80;99.90;;;;;;4172768;28;20129;-58
2023/09/18 04:17:24;;;;;;;6.18;5.65;;;15.70;99.90;;;;;;4172726;28;20049;-59
2023/09/18 04:19:44;;;;;;;8.35;5.18;;;15.70;99.90;;;;;;4172689;28;20305;-58
2023/09/18 04:22:04;;;;;;;7.70;5.35;;;15.60;99.90;;;;;;4172759;28;20276;-59
2023/09/18 04:24:25;;;;;;;5.65;5.35;;;15.60;99.90;;;;;;4170818;28;20049;-60
2023/09/18 04:26:45;;;;;;;5.80;5.40;;;15.60;99.90;;;;;;4171555;28;20084;-59
2023/09/18 04:29:05;;;;;;;6.97;6.60;;;15.60;99.90;;;;;;4172374;28;20140;-59
2023/09/18 04:31:27;;;;;;;5.57;4.97;;;15.60;99.90;;;;;;4172624;28;20044;-59
2023/09/18 04:33:46;;;;;;;6.15;5.85;;;15.70;99.90;;;;;;4172324;28;20139;-58
2023/09/18 04:36:07;;;;;;;6.85;5.75;;;15.70;99.90;;;;;;4172476;28;20221;-58
2023/09/18 04:38:27;;;;;;;5.03;4.93;;;15.80;99.90;;;;;;4172572;28;20075;-59
2023/09/18 04:40:47;;;;;;;6.38;5.95;;;15.80;99.90;;;;;;4172217;28;20048;-59
2023/09/18 04:43:07;;;;;;;7.78;5.53;;;15.80;99.90;;;;;;4157482;28;20069;-59
2023/09/18 04:45:27;;;;;;;6.13;5.68;;;15.80;99.90;;;;;;4172470;28;20109;-59
2023/09/18 04:47:48;;;;;;;6.18;5.63;;;15.80;99.90;;;;;;4172496;28;20401;-59
2023/09/18 04:50:08;;;;;;;6.82;5.35;;;15.80;99.90;;;;;;4171356;28;20100;-59
2023/09/18 04:52:32;;;;;;;5.53;5.05;;;15.70;99.90;;;;;;4172373;28;20068;-58
2023/09/18 04:54:54;;;;;;;6.07;5.65;;;15.70;99.90;;;;;;4169560;28;20236;-58
2023/09/18 04:57:14;;;;;;;6.40;5.97;;;15.80;99.90;;;;;;4171844;28;20076;-59
2023/09/18 04:59:34;;;;;;;7.07;6.10;;;15.80;99.90;;;;;;4171798;28;20103;-58
2023/09/18 05:01:54;;;;;;;6.50;4.50;;;15.60;99.90;;;;;;4173785;28;20087;-58
2023/09/18 05:04:14;;;;;;;6.05;5.53;;;15.40;99.90;;;;;;4174174;28;20124;-58
2023/09/18 05:06:34;;;;;;;5.88;5.43;;;15.30;99.90;;;;;;4174313;28;20084;-59
2023/09/18 05:08:55;;;;;;;6.57;6.18;;;15.20;99.90;;;;;;4174727;28;20076;-59
2023/09/18 05:11:16;;;;;;;6.18;5.90;;;15.20;99.90;;;;;;4174793;28;20367;-58
2023/09/18 05:13:36;;;;;;;6.80;6.10;;;15.20;99.90;;;;;;4175366;28;20355;-59
2023/09/18 05:15:58;;;;;;;6.60;6.18;;;15.20;99.90;;;;;;4173651;28;20048;-58
2023/09/18 05:18:18;;;;;;;6.50;6.23;;;15.20;99.90;;;;;;4172990;28;20060;-59
2023/09/18 05:20:39;;;;;;;6.40;6.20;;;15.20;99.90;;;;;;4172956;28;20278;-58
2023/09/18 05:23:00;;;;;;;6.95;6.53;;;15.30;99.90;;;;;;4174959;28;20048;-58
2023/09/18 05:25:21;;;;;;;7.18;6.68;;;15.30;99.90;;;;;;4174859;28;20088;-58
2023/09/18 05:27:44;;;;;;;7.78;7.15;;;15.40;99.90;;;;;;4174722;28;20079;-59
2023/09/18 05:30:05;;;;;;;9.40;6.93;;;15.50;99.90;;;;;;4173822;28;20320;-59
2023/09/18 05:32:25;;;;;;;7.18;6.25;;;15.60;99.90;;;;;;4174493;28;20056;-59
2023/09/18 05:34:45;;;;;;;7.32;6.85;;;15.60;99.90;;;;;;4172377;28;20053;-59
2023/09/18 05:37:05;;;;;;;7.95;7.40;;;15.60;99.90;;;;;;4174751;28;20037;-59
2023/09/18 05:39:25;;;;;;;7.32;6.57;;;15.60;99.90;;;;;;4174094;28;20056;-59
2023/09/18 05:41:45;;;;;;;7.45;7.15;;;15.70;99.90;;;;;;4173844;28;20040;-59
2023/09/18 05:44:07;;;;;;;7.53;6.18;;;15.60;99.90;;;;;;4174569;28;20048;-59
2023/09/18 05:46:27;;;;;;;6.95;6.57;;;15.50;99.90;;;;;;4174539;28;20047;-59
2023/09/18 05:48:47;;;;;;;6.10;5.65;;;15.50;99.90;;;;;;4174200;28;20398;-59
2023/09/18 05:51:07;;;;;;;7.25;6.68;;;15.40;99.90;;;;;;4173458;28;20059;-59
2023/09/18 05:53:27;;;;;;;6.32;6.10;;;15.40;99.90;;;;;;4174097;28;20289;-59
2023/09/18 05:55:47;;;;;;;8.13;7.57;;;15.40;99.90;;;;;;4173584;28;20056;-59
2023/09/18 05:58:08;;;;;;;11.55;6.95;;;15.50;99.90;;;;;;4174416;28;20048;-59
2023/09/18 06:00:30;;;;;;;5.88;5.47;;;15.50;99.90;;;;;;4174154;28;20112;-58
2023/09/18 06:02:53;;;;;;;8.30;6.28;;;15.60;99.90;;;;;;4174443;28;20044;-59
2023/09/18 06:05:15;;;;;;;7.28;6.85;;;15.70;99.90;;;;;;4174319;28;20299;-59
2023/09/18 06:07:36;;;;;;;7.40;6.88;;;15.70;99.90;;;;;;4172788;28;20045;-59
2023/09/18 06:09:57;;;;;;;6.05;5.47;;;15.70;99.90;;;;;;4173910;28;20149;-59
2023/09/18 06:12:17;;;;;;;6.80;5.22;;;15.60;99.90;;;;;;4173966;28;20040;-59
2023/09/18 06:14:38;;;;;;;7.32;6.75;;;15.60;99.90;;;;;;4172713;28;20092;-59
2023/09/18 06:16:57;;;;;;;7.53;7.03;;;15.70;99.90;;;;;;4174160;28;20231;-59
2023/09/18 06:19:18;;;;;;;6.90;6.43;;;15.80;99.90;;;;;;4173221;28;20175;-59
2023/09/18 06:21:38;;;;;;;8.07;7.57;;;15.80;99.90;;;;;;4174058;28;20101;-59
2023/09/18 06:23:58;;;;;;;5.70;5.60;;;16.00;99.90;;;;;;4173992;28;20087;-59
2023/09/18 06:26:18;;;;;;;7.45;6.75;;;16.10;99.90;;;;;;4174133;28;20241;-59
2023/09/18 06:28:38;;;;;;;7.60;7.20;;;16.20;99.90;;;;;;4173562;28;20083;-59
2023/09/18 06:30:58;;;;;;;6.93;6.35;;;16.30;99.90;;;;;;4172876;28;20044;-59
2023/09/18 06:33:18;;;;;;;6.43;5.85;;;16.40;99.90;;;;;;4171920;28;20072;-59
2023/09/18 06:35:39;;;;;;;6.93;6.38;;;16.40;99.90;;;;;;4173873;28;20064;-59
2023/09/18 06:37:59;;;;;;;6.55;6.13;;;16.50;99.90;;;;;;4172929;28;20144;-59
2023/09/18 06:40:19;;;;;;;5.72;5.43;;;16.60;99.90;;;;;;4173502;28;20239;-59
2023/09/18 06:42:39;;;;;;;5.97;5.63;;;16.60;99.90;;;;;;4173988;28;20044;-59
2023/09/18 06:45:01;;;;;;;7.05;6.53;;;16.70;99.90;;;;;;4173901;28;20064;-59
2023/09/18 06:47:21;;;;;;;6.25;5.97;;;16.70;99.90;;;;;;4171741;28;20061;-59
2023/09/18 06:49:41;;;;;;;6.07;5.57;;;16.80;99.90;;;;;;4173818;28;20045;-59
2023/09/18 06:52:01;;;;;;;8.88;6.25;;;16.90;99.90;;;;;;4173598;28;20079;-59
2023/09/18 06:54:23;;;;;;;6.25;5.90;;;16.90;99.90;;;;;;4173123;28;20274;-59
2023/09/18 06:56:44;;;;;;;6.55;5.95;;;17.00;99.90;;;;;;4172183;28;20105;-59
2023/09/18 06:59:04;;;;;;;7.13;5.13;;;17.00;99.90;;;;;;4173611;28;20363;-59
2023/09/18 07:01:25;;;;;;;7.15;6.50;;;17.10;99.90;;;;;;4173475;28;20094;-59
2023/09/18 07:03:50;;;;;;;5.85;5.45;;;17.10;99.90;;;;;;4173628;28;20048;-59
2023/09/18 07:06:10;;;;;;;8.27;5.80;;;17.20;99.90;;;;;;4172658;28;20051;-59
2023/09/18 07:08:30;;;;;;;6.22;5.82;;;17.40;99.90;;;;;;4173521;28;20098;-59
2023/09/18 07:10:51;;;;;;;7.28;5.35;;;17.50;99.90;;;;;;4173317;28;20276;-59
2023/09/18 07:13:11;;;;;;;5.35;4.95;;;17.60;99.90;;;;;;4172064;28;20083;-59
2023/09/18 07:15:32;;;;;;;6.00;5.57;;;17.60;99.90;;;;;;4172485;28;20283;-59
2023/09/18 07:17:52;;;;;;;5.93;4.70;;;17.70;99.90;;;;;;4173125;28;20048;-59
2023/09/18 07:20:14;;;;;;;7.63;5.07;;;17.70;99.90;;;;;;4173168;28;20049;-59
2023/09/18 07:22:35;;;;;;;5.80;4.68;;;17.80;99.90;;;;;;4172657;28;20079;-59
2023/09/18 07:24:55;;;;;;;8.85;5.43;;;17.80;99.90;;;;;;4173293;28;20240;-59
2023/09/18 07:27:15;;;;;;;6.00;5.13;;;17.90;99.90;;;;;;4172081;28;20109;-59
2023/09/18 07:29:35;;;;;;;5.05;4.80;;;18.00;99.90;;;;;;4173297;28;20083;-59
2023/09/18 07:31:56;;;;;;;8.00;5.50;;;18.10;99.90;;;;;;4172881;28;20056;-59
2023/09/18 07:34:17;;;;;;;5.53;5.05;;;18.10;99.90;;;;;;4172473;28;20063;-59
2023/09/18 07:36:37;;;;;;;5.65;3.90;;;18.20;99.90;;;;;;4172571;28;20244;-59
2023/09/18 07:38:57;;;;;;;4.68;4.40;;;18.30;99.90;;;;;;4172973;28;20119;-59
2023/09/18 07:41:19;;;;;;;8.13;4.07;;;18.30;99.90;;;;;;4172700;28;20044;-58
2023/09/18 07:43:39;;;;;;;5.65;3.85;;;18.40;99.90;;;;;;4171684;28;20059;-59
2023/09/18 07:46:01;;;;;;;4.38;3.97;;;18.40;99.90;;;;;;4172987;28;20052;-59
2023/09/18 07:48:22;;;;;;;4.68;4.30;;;18.60;99.90;;;;;;4173137;28;20041;-57
2023/09/18 07:50:44;;;;;;;5.15;3.22;;;18.70;99.90;;;;;;4172263;28;20088;-57
2023/09/18 07:53:04;;;;;;;6.30;4.25;;;18.80;99.90;;;;;;4172437;28;20438;-57
2023/09/18 07:55:25;;;;;;;3.90;3.63;;;18.80;99.90;;;;;;4172905;28;20052;-57
2023/09/18 07:57:47;;;;;;;5.55;4.85;;;18.90;99.90;;;;;;4172959;28;20040;-56
2023/09/18 08:00:12;;;;;;;11.03;4.87;;;18.90;99.90;;;;;;4172880;28;20390;-57
2023/09/18 08:02:32;;;;;;;6.15;4.72;;;19.00;99.90;;;;;;4172853;28;20694;-57
2023/09/18 08:04:52;;;;;;;4.28;4.03;;;18.90;99.90;;;;;;4172067;28;20053;-57
2023/09/18 08:07:13;;;;;;;4.72;4.53;;;19.00;99.90;;;;;;4172749;28;20107;-57
2023/09/18 08:09:36;;;;;;;4.85;4.55;;;19.00;99.90;;;;;;4172374;28;20082;-57
2023/09/18 08:11:57;;;;;;;8.43;5.03;;;19.00;99.90;;;;;;4156204;28;20048;-56
2023/09/18 08:14:17;;;;;;;4.75;4.30;;;19.20;99.90;;;;;;4169814;28;20076;-57
2023/09/18 08:16:40;;;;;;;4.80;4.38;;;19.50;99.90;;;;;;4172721;28;20088;-57
2023/09/18 08:19:03;;;;;;;4.82;4.53;;;19.60;99.90;;;;;;4172526;28;20333;-57
2023/09/18 08:21:24;;;;;;;4.30;4.20;;;19.80;99.90;;;;;;4172614;28;20117;-57
2023/09/18 08:23:44;;;;;;;9.65;4.03;;;20.00;99.90;;;;;;4172492;28;20091;-56
2023/09/18 08:26:05;;;;;;;5.22;3.35;;;20.10;99.90;;;;;;4172697;28;20224;-57
2023/09/18 08:28:25;;;;;;;3.67;3.35;;;20.20;99.90;;;;;;4156918;28;20411;-57
2023/09/18 08:30:47;;;;;;;2.58;2.47;;;20.40;99.90;;;;;;4170578;28;20080;-57
2023/09/18 08:33:06;;;;;;;3.20;3.10;;;20.50;99.90;;;;;;4172487;28;20080;-57
2023/09/18 08:35:29;;;;;;;3.38;3.03;;;20.60;99.90;;;;;;4172592;28;20048;-57
2023/09/18 08:37:49;;;;;;;4.22;2.28;;;20.70;99.90;;;;;;4174577;28;20039;-57
2023/09/18 08:40:13;;;;;;;2.38;2.25;;;20.80;99.90;;;;;;4175510;28;20275;-57
2023/09/18 08:42:34;;;;;;;4.50;2.78;;;21.10;99.90;;;;;;4163769;28;20402;-57
2023/09/18 08:44:58;;;;;;;3.28;3.05;;;21.20;99.90;;;;;;4174684;28;20048;-57
2023/09/18 08:47:19;;;;;;;5.25;2.85;;;21.40;99.90;;;;;;4175214;28;20414;-58
2023/09/18 08:49:40;;;;;;;2.55;2.45;;;21.70;99.90;;;;;;4174883;28;20105;-56
2023/09/18 08:52:01;;;;;;;3.78;2.88;;;21.80;99.90;;;;;;4166214;28;20088;-57
2023/09/18 08:54:23;;;;;;;2.60;1.95;;;21.90;99.90;;;;;;4174736;28;20109;-57
2023/09/18 08:56:43;;;;;;;3.75;2.08;;;21.80;99.90;;;;;;4173970;28;20052;-56
2023/09/18 08:59:03;;;;;;;8.88;2.08;;;22.10;99.90;;;;;;4175222;28;20375;-57
2023/09/18 09:01:23;;;;;;;5.45;2.10;;;22.30;99.90;;;;;;4174993;28;20075;-57
2023/09/18 09:03:45;;;;;;;2.30;2.10;;;22.60;99.90;;;;;;4174599;28;20159;-57
2023/09/18 09:06:09;;;;;;;4.75;1.95;;;22.80;99.90;;;;;;4174985;28;20117;-57
2023/09/18 09:08:29;;;;;;;1.38;1.10;;;23.00;99.90;;;;;;4174968;28;20040;-57
2023/09/18 09:10:50;;;;;;;3.22;1.55;;;23.20;99.90;;;;;;4174938;28;20039;-57
2023/09/18 09:13:13;;;;;;;2.55;1.40;;;23.40;99.90;;;;;;4174996;28;20375;-57
2023/09/18 09:15:49;;;;;;;2.35;1.80;;;23.70;99.90;;;;;;4174231;28;20109;-57
2023/09/18 09:18:09;;;;;;;1.23;1.00;;;23.80;99.90;;;;;;4174666;28;20366;-57
2023/09/18 09:20:29;;;;;;;4.70;1.02;;;23.90;99.90;;;;;;4171941;28;20284;-57
2023/09/18 09:22:50;;;;;;;1.48;1.30;;;24.10;99.90;;;;;;4174929;28;20108;-57
2023/09/18 09:25:26;;;;;;;7.85;1.17;;;24.60;99.90;;;;;;4174532;28;20050;-57
2023/09/18 09:27:45;;;;;;;6.05;1.35;;;24.80;99.90;;;;;;4174731;28;20091;-57
2023/09/18 09:30:06;;;;;;;3.05;1.10;;;24.90;99.90;;;;;;4174947;28;20048;-57
2023/09/18 09:32:31;;;;;;;2.38;1.52;;;25.00;99.90;;;;;;4174867;28;20113;-57
2023/09/18 09:34:59;;;;;;;1.88;1.77;;;24.80;99.10;;;;;;4174779;28;20367;-57
2023/09/18 09:37:29;;;;;;;3.53;0.80;;;25.10;99.10;;;;;;4174434;28;20071;-56
2023/09/18 09:39:50;;;;;;;2.55;1.20;;;25.10;96.10;;;;;;4172750;28;20076;-57
2023/09/18 09:42:11;;;;;;;4.40;0.90;;;25.50;98.00;;;;;;4174598;28;20271;-57
2023/09/18 09:44:34;;;;;;;3.30;0.90;;;25.60;97.00;;;;;;4173564;28;20056;-57
2023/09/18 09:46:54;;;;;;;4.15;1.13;;;25.50;95.50;;;;;;4173473;28;20427;-57
2023/09/18 09:49:17;;;;;;;3.28;0.80;;;25.60;95.70;;;;;;4174527;28;20117;-57
2023/09/18 09:51:37;;;;;;;1.48;0.70;;;25.90;95.50;;;;;;4174358;28;20367;-57
2023/09/18 09:53:58;;;;;;;3.55;0.80;;;26.00;93.30;;;;;;4173378;28;20059;-57
2023/09/18 09:56:19;;;;;;;0.77;0.77;;;26.30;93.90;;;;;;4163316;28;20241;-57
2023/09/18 09:58:43;;;;;;;1.00;0.90;;;26.30;93.90;;;;;;4174439;28;20399;-57
2023/09/18 10:01:08;;;;;;;0.70;0.70;;;26.40;93.60;;;;;;4174087;28;20044;-57
2023/09/18 10:03:30;;;;;;;0.82;0.82;;;25.90;93.30;;;;;;4174412;28;20041;-57
2023/09/18 10:05:55;;;;;;;3.00;1.00;;;26.20;93.50;;;;;;4174456;28;20052;-57
2023/09/18 10:08:27;;;;;;;2.35;1.08;;;26.30;93.10;;;;;;4172871;28;20053;-57
2023/09/18 10:10:53;;;;;;;1.45;0.80;;;26.20;92.60;;;;;;4173538;28;20040;-57
2023/09/18 10:13:18;;;;;;;6.13;1.00;;;26.40;93.60;;;;;;4173351;28;20056;-57
2023/09/18 10:15:42;;;;;;;2.00;0.80;;;26.30;91.60;;;;;;4173251;28;20117;-57
2023/09/18 10:18:04;;;;;;;2.40;1.00;;;26.40;93.20;;;;;;4173875;28;20072;-57
2023/09/18 10:20:26;;;;;;;2.00;0.73;;;26.40;93.40;;;;;;4173589;28;20095;-57
2023/09/18 10:22:52;;;;;;;1.58;1.15;;;26.40;92.10;;;;;;4172677;28;20053;-57
2023/09/18 10:25:22;;;;;;;1.17;0.75;;;26.40;93.00;;;;;;4174263;28;20052;-57
2023/09/18 10:27:43;;;;;;;1.58;0.98;;;26.40;92.30;;;;;;4173948;28;20041;-57
2023/09/18 10:30:05;;;;;;;3.35;0.80;;;26.30;91.70;;;;;;4174088;28;20148;-55
2023/09/18 10:32:28;;;;;;;1.42;0.80;;;26.00;92.40;;;;;;4174217;28;20052;-55
2023/09/18 10:34:48;;;;;;;3.80;1.02;;;25.80;92.50;;;;;;4173418;28;20359;-55
2023/09/18 10:37:11;;;;;;;1.00;0.90;;;25.90;92.50;;;;;;4173793;28;20071;-54
2023/09/18 10:39:34;;;;;;;2.20;0.90;;;26.10;93.70;;;;;;4173956;28;20095;-54
2023/09/18 10:41:56;;;;;;;1.70;0.80;;;25.90;92.30;;;;;;4172885;28;20044;-54
2023/09/18 10:44:17;;;;;;;5.00;0.80;;;25.80;93.20;;;;;;4173231;28;20374;-54
2023/09/18 10:46:38;;;;;;;1.50;1.05;;;25.70;92.80;;;;;;4172158;28;20044;-55
2023/09/18 10:49:00;;;;;;;1.17;1.05;;;25.90;93.90;;;;;;4173870;28;20105;-54
2023/09/18 10:51:22;;;;;;;1.55;0.85;;;25.70;93.40;;;;;;4158910;28;20419;-55
2023/09/18 10:53:42;;;;;;;0.85;0.85;;;25.80;93.40;;;;;;4173655;28;20076;-55
2023/09/18 10:56:06;;;;;;;1.10;0.90;;;25.70;94.10;;;;;;4173797;28;20047;-55
2023/09/18 10:58:27;;;;;;;2.35;1.05;;;25.70;94.50;;;;;;4171828;28;20430;-55
2023/09/18 11:00:47;;;;;;;2.22;1.15;;;25.80;95.30;;;;;;4173624;28;20323;-54
2023/09/18 11:03:17;;;;;;;5.18;1.00;;;25.90;94.80;;;;;;4173706;28;20375;-54
2023/09/18 11:05:37;;;;;;;1.75;1.00;;;26.00;95.90;;;;;;4173582;28;20098;-54
2023/09/18 11:08:29;;;;;;;2.28;0.90;;;26.10;95.30;;;;;;4170478;28;20064;-54
2023/09/18 11:11:19;;;;;;;3.55;1.45;;;26.30;95.90;;;;;;4171136;28;20109;-54
2023/09/18 11:13:45;;;;;;;3.65;0.80;;;26.30;95.50;;;;;;4092936;29;20242;-54
2023/09/18 11:16:26;;;;;;;3.90;1.27;;;26.30;95.60;;;;;;4092760;29;20381;-55
2023/09/18 11:18:52;;;;;;;3.72;1.02;;;26.20;96.50;;;;;;4091304;29;20402;-55
2023/09/18 11:21:15;;;;;;;2.30;1.00;;;26.30;96.30;;;;;;4090852;29;20374;-55
2023/09/18 11:23:43;;;;;;;3.38;0.90;;;26.10;95.90;;;;;;4091959;29;20163;-55
2023/09/18 11:26:07;;;;;;;2.13;0.80;;;25.90;96.40;;;;;;4091305;29;20042;-55
2023/09/18 11:28:30;;;;;;;1.63;0.85;;;25.80;96.20;;;;;;4091867;29;20083;-54
2023/09/18 11:31:00;;;;;;;3.13;1.25;;;25.70;96.50;;;;;;4090326;29;20050;-54
2023/09/18 11:33:52;;;;;;;7.93;1.10;;;25.80;96.60;;;;;;4091772;29;20135;-54
2023/09/18 11:36:14;;;;;;;5.00;1.20;;;26.00;96.40;;;;;;4044591;29;20047;-54
2023/09/18 11:38:35;;;;;;;3.78;0.98;;;25.90;96.70;;;;;;4044499;29;20081;-54
2023/09/18 11:40:57;;;;;;;8.93;1.00;;;25.90;97.10;;;;;;4043389;29;20056;-54
2023/09/18 11:43:26;;;;;;;3.53;1.25;;;26.00;97.20;;;;;;4045992;29;20162;-55
2023/09/18 11:45:50;;;;;;;6.15;1.33;;;26.10;96.90;;;;;;4044850;29;20108;-55
2023/09/18 11:48:11;;;;;;;5.57;1.05;;;26.10;96.70;;;;;;4046253;29;20059;-55
2023/09/18 11:50:32;;;;;;;4.07;1.40;;;26.10;96.50;;;;;;4092516;29;20055;-55
2023/09/18 11:52:53;;;;;;;4.30;0.90;;;26.00;97.10;;;;;;4105713;29;20055;-55
2023/09/18 11:55:14;;;;;;;8.65;1.27;;;26.00;96.80;;;;;;4106560;29;20050;-54
2023/09/18 11:57:38;;;;;;;3.75;1.98;;;26.00;96.50;;;;;;4106465;29;20039;-55
2023/09/18 12:00:11;;;;;;;4.55;0.90;;;26.00;96.80;;;;;;4105965;29;20061;-54
2023/09/18 12:02:36;;;;;;;3.38;1.23;;;26.00;96.30;;;;;;4106597;29;20042;-55
2023/09/18 12:04:56;;;;;;;3.55;1.10;;;26.00;96.50;;;;;;4105751;29;20262;-54
2023/09/18 12:07:18;;;;;;;7.80;1.38;;;26.10;96.20;;;;;;4106028;29;20361;-55
2023/09/18 12:09:39;;;;;;;;;;;26.00;95.90;;;;;;4107021;28;20075;-55
2023/09/18 12:12:05;;;;;;;6.25;1.58;;;26.10;96.70;;;;;;4122239;28;19947;-55
2023/09/18 12:14:25;;;;;;;6.35;1.10;;;26.00;96.50;;;;;;4171604;28;20232;-55
2023/09/18 12:16:45;;;;;;;3.60;0.98;;;26.00;96.20;;;;;;4172665;28;20079;-54
2023/09/18 12:19:06;;;;;;;5.70;1.85;;;25.80;96.30;;;;;;4171931;28;20087;-55